Time;durP1;ratioP1;P1;durP2;ratioP2;P2;SDS_P1;SDS_P2;PMS_P1;PMS_P2;Temp;Humidity;BMP_temperature;BMP_pressure;BME280_temperature;BME280_humidity;BME280_pressure;Samples;Min_cycle;Max_cycle;Signal;HPM_P1;HPM_P2
2023/08/13 00:01:49;;;;;;;;;;;;;;;28.07;48.07;97121.84;4217894;28;5677;-71
2023/08/13 00:03:52;;;;;;;;;;;;;;;28.07;48.12;97124.56;4218286;28;7696;-71
2023/08/13 00:05:54;;;;;;;;;;;;;;;28.07;48.12;97121.84;4218339;28;5664;-71
2023/08/13 00:07:59;;;;;;;;;;;;;;;28.06;48.34;97112.88;4218561;28;5739;-70
2023/08/13 00:10:02;;;;;;;;;;;;;;;28.06;48.38;97112.09;4218070;28;7770;-71
2023/08/13 00:12:05;;;;;;;;;;;;;;;28.05;48.36;97115.91;4218263;28;5688;-72
2023/08/13 00:14:08;;;;;;;;;;;;;;;28.05;48.78;97111.28;4218509;28;5819;-72
2023/08/13 00:16:11;;;;;;;;;;;;;;;28.05;48.96;97115.91;4218357;28;6492;-72
2023/08/13 00:18:14;;;;;;;;;;;;;;;28.03;48.85;97113.50;4218363;28;5696;-71
2023/08/13 00:20:17;;;;;;;;;;;;;;;28.00;48.98;97110.56;4218386;28;5806;-71
2023/08/13 00:22:21;;;;;;;;;;;;;;;28.00;49.05;97110.56;4217563;28;5657;-71
2023/08/13 00:24:26;;;;;;;;;;;;;;;28.00;49.08;97111.38;4213955;28;5861;-72
2023/08/13 00:26:29;;;;;;;;;;;;;;;28.00;49.17;97111.38;4211102;28;6380;-72
2023/08/13 00:28:31;;;;;;;;;;;;;;;28.00;49.19;97110.56;4211491;28;5867;-71
2023/08/13 00:30:34;;;;;;;;;;;;;;;28.00;49.46;97105.13;4216477;28;5672;-71
2023/08/13 00:32:37;;;;;;;;;;;;;;;27.98;49.59;97108.16;4214262;28;5669;-72
2023/08/13 00:34:40;;;;;;;;;;;;;;;27.98;49.53;97115.50;4212968;28;5815;-71
2023/08/13 00:36:43;;;;;;;;;;;;;;;27.98;49.74;97112.78;4203019;28;6390;-72
2023/08/13 00:38:46;;;;;;;;;;;;;;;27.97;49.96;97103.78;4210565;28;6106;-71
2023/08/13 00:40:50;;;;;;;;;;;;;;;27.98;50.00;97107.34;4218093;28;5661;-72
2023/08/13 00:42:53;;;;;;;;;;;;;;;27.97;50.21;97105.72;4214734;28;5853;-71
2023/08/13 00:44:56;;;;;;;;;;;;;;;27.96;50.21;97104.09;4208425;28;5819;-71
2023/08/13 00:46:59;;;;;;;;;;;;;;;27.96;50.42;97104.91;4215048;28;5652;-72
2023/08/13 00:49:03;;;;;;;;;;;;;;;27.95;50.46;97113.34;4217938;28;5771;-71
2023/08/13 00:51:07;;;;;;;;;;;;;;;27.95;50.49;97108.72;4217599;28;5846;-71
2023/08/13 00:53:11;;;;;;;;;;;;;;;27.95;50.54;97110.63;4217413;28;6349;-71
2023/08/13 00:55:14;;;;;;;;;;;;;;;27.93;50.55;97110.13;4216981;28;5660;-71
2023/08/13 00:57:19;;;;;;;;;;;;;;;27.93;50.64;97112.84;4216709;28;5613;-72
2023/08/13 00:59:22;;;;;;;;;;;;;;;27.92;50.58;97117.47;4217856;28;5708;-71
2023/08/13 01:01:26;;;;;;;;;;;;;;;27.90;50.56;97116.97;4217688;28;5806;-71
2023/08/13 01:03:29;;;;;;;;;;;;;;;27.88;50.59;97118.38;4216477;28;5648;-72
2023/08/13 01:05:39;;;;;;;;;;;;;;;27.85;50.69;97109.69;4208911;28;5726;-71
2023/08/13 01:07:52;;;;;;;;;;;;;;;27.85;50.64;97112.41;4209368;28;5668;-72
2023/08/13 01:10:09;;;;;;;;;;;;;;;27.84;50.63;97118.16;4216996;28;5788;-72
2023/08/13 01:12:23;;;;;;;;;;;;;;;27.84;50.63;97118.94;4217841;28;5671;-72
2023/08/13 01:14:33;;;;;;;;;;;;;;;27.84;50.61;97116.25;4217514;28;5685;-72
2023/08/13 01:16:41;;;;;;;;;;;;;;;27.84;50.50;97120.88;4216290;28;5620;-72
2023/08/13 01:18:46;;;;;;;;;;;;;;;27.83;50.80;97111.91;4209184;28;5777;-72
2023/08/13 01:20:49;;;;;;;;;;;;;;;27.83;50.67;97122.78;4217469;28;5778;-72
2023/08/13 01:22:53;;;;;;;;;;;;;;;27.81;50.57;97113.31;4216852;28;5751;-72
2023/08/13 01:24:57;;;;;;;;;;;;;;;27.82;50.72;97113.00;4209079;28;5709;-72
2023/08/13 01:27:12;;;;;;;;;;;;;;;27.82;50.70;97113.00;4214602;28;5672;-72
2023/08/13 01:29:18;;;;;;;;;;;;;;;27.81;50.80;97116.03;4213684;28;5747;-72
2023/08/13 01:31:26;;;;;;;;;;;;;;;27.78;50.75;97122.06;4217388;28;5665;-72
2023/08/13 01:33:33;;;;;;;;;;;;;;;27.79;50.83;97124.47;4217512;28;6423;-72
2023/08/13 01:35:36;;;;;;;;;;;;;;;27.78;51.01;97119.34;4216975;28;5870;-72
2023/08/13 01:37:40;;;;;;;;;;;;;;;27.77;51.00;97115.81;4217370;28;5681;-72
2023/08/13 01:39:45;;;;;;;;;;;;;;;27.76;50.68;97127.00;4209037;28;5660;-72
2023/08/13 01:41:52;;;;;;;;;;;;;;;27.75;51.12;97126.19;4210365;28;5684;-72
2023/08/13 01:43:55;;;;;;;;;;;;;;;27.75;50.96;97120.75;4214323;28;5836;-72
2023/08/13 01:46:00;;;;;;;;;;;;;;;27.75;51.02;97125.38;4211016;28;5684;-72
2023/08/13 01:48:03;;;;;;;;;;;;;;;27.72;51.01;97121.31;4217365;28;5655;-72
2023/08/13 01:50:06;;;;;;;;;;;;;;;27.72;51.11;97126.75;4216694;28;5181;-71
2023/08/13 01:52:09;;;;;;;;;;;;;;;27.73;50.90;97124.84;4217383;28;5664;-72
2023/08/13 01:54:12;;;;;;;;;;;;;;;27.72;51.08;97126.75;4217258;28;5680;-72
2023/08/13 01:56:16;;;;;;;;;;;;;;;27.72;51.01;97124.03;4217011;28;6362;-72
2023/08/13 01:58:19;;;;;;;;;;;;;;;27.69;51.06;97119.19;4217382;28;5160;-72
2023/08/13 02:00:23;;;;;;;;;;;;;;;27.70;51.01;97118.09;4216424;28;5680;-72
2023/08/13 02:02:25;;;;;;;;;;;;;;;27.69;51.06;97121.91;4208126;28;5811;-72
2023/08/13 02:04:29;;;;;;;;;;;;;;;27.68;50.90;97108.63;4216750;28;5705;-72
2023/08/13 02:06:33;;;;;;;;;;;;;;;27.69;50.87;97110.25;4219034;28;5676;-72
2023/08/13 02:08:36;;;;;;;;;;;;;;;27.67;50.90;97115.19;4220007;28;5695;-72
2023/08/13 02:10:39;;;;;;;;;;;;;;;27.66;50.94;97114.38;4220647;28;5657;-72
2023/08/13 02:12:44;;;;;;;;;;;;;;;27.66;50.69;97116.28;4220384;28;5775;-72
2023/08/13 02:14:46;;;;;;;;;;;;;;;27.65;50.85;97111.94;4212531;28;5826;-72
2023/08/13 02:16:49;;;;;;;;;;;;;;;27.64;50.63;97119.25;4220320;28;5759;-72
2023/08/13 02:18:51;;;;;;;;;;;;;;;27.63;50.54;97106.75;4211541;28;5588;-72
2023/08/13 02:20:54;;;;;;;;;;;;;;;27.63;50.52;97114.09;4219426;28;5672;-72
2023/08/13 02:22:56;;;;;;;;;;;;;;;27.63;50.35;97108.66;4220349;28;5668;-71
2023/08/13 02:24:58;;;;;;;;;;;;;;;27.62;50.40;97109.78;4220347;28;5676;-72
2023/08/13 02:27:01;;;;;;;;;;;;;;;27.61;50.34;97108.16;4220150;28;5830;-72
2023/08/13 02:29:06;;;;;;;;;;;;;;;27.59;50.03;97103.03;4220240;28;5660;-72
2023/08/13 02:31:09;;;;;;;;;;;;;;;27.59;50.11;97105.75;4220167;28;5681;-72
2023/08/13 02:33:12;;;;;;;;;;;;;;;27.58;49.94;97115.00;4219999;28;5684;-72
2023/08/13 02:35:15;;;;;;;;;;;;;;;27.56;49.81;97109.88;4219404;28;5664;-71
2023/08/13 02:37:18;;;;;;;;;;;;;;;27.55;49.81;97110.16;4220101;28;5689;-72
2023/08/13 02:39:21;;;;;;;;;;;;;;;27.56;49.89;97106.34;4220252;28;5879;-72
2023/08/13 02:41:24;;;;;;;;;;;;;;;27.54;49.62;97103.94;4218471;28;6355;-72
2023/08/13 02:43:28;;;;;;;;;;;;;;;27.54;49.61;97098.50;4219715;28;5731;-72
2023/08/13 02:45:32;;;;;;;;;;;;;;;27.54;49.77;97103.94;4220134;28;5124;-72
2023/08/13 02:47:34;;;;;;;;;;;;;;;27.50;49.84;97097.44;4219888;28;5776;-72
2023/08/13 02:49:37;;;;;;;;;;;;;;;27.50;49.77;97110.22;4214620;28;6092;-72
2023/08/13 02:51:40;;;;;;;;;;;;;;;27.50;49.70;97104.78;4213805;28;5610;-72
2023/08/13 02:53:43;;;;;;;;;;;;;;;27.51;49.66;97114.53;4213101;28;5908;-72
2023/08/13 02:55:46;;;;;;;;;;;;;;;27.50;49.67;97102.06;4214838;28;5697;-72
2023/08/13 02:57:49;;;;;;;;;;;;;;;27.51;49.51;97103.69;4216625;28;5680;-72
2023/08/13 03:00:12;;;;;;;;;;;;;;;27.50;49.58;97107.50;4217465;28;5846;-72
2023/08/13 03:02:17;;;;;;;;;;;;;;;27.49;49.35;97111.31;4218400;28;6460;-72
2023/08/13 03:04:18;;;;;;;;;;;;;;;27.48;49.39;97101.56;4212919;28;5811;-72
2023/08/13 03:06:24;;;;;;;;;;;;;;;27.48;49.49;97098.84;4216455;28;5667;-72
2023/08/13 03:08:28;;;;;;;;;;;;;;;27.46;49.50;97101.88;4219434;28;5720;-72
2023/08/13 03:10:30;;;;;;;;;;;;;;;27.45;49.37;97100.25;4215676;28;5767;-72
2023/08/13 03:12:34;;;;;;;;;;;;;;;27.43;49.29;97105.19;4219481;28;5677;-72
2023/08/13 03:14:36;;;;;;;;;;;;;;;27.44;49.41;97095.13;4219402;28;5672;-72
2023/08/13 03:16:39;;;;;;;;;;;;;;;27.42;49.41;97106.28;4219254;28;5669;-72
2023/08/13 03:18:44;;;;;;;;;;;;;;;27.39;49.31;97104.13;4218541;28;5740;-72
2023/08/13 03:20:46;;;;;;;;;;;;;;;27.38;49.18;97105.22;4219046;28;7104;-72
2023/08/13 03:22:49;;;;;;;;;;;;;;;27.37;49.47;97102.81;4216712;28;5078;-72
2023/08/13 03:24:52;;;;;;;;;;;;;;;27.38;49.36;97104.44;4212314;28;5669;-72
2023/08/13 03:26:55;;;;;;;;;;;;;;;27.38;49.46;97101.72;4218824;28;5767;-72
2023/08/13 03:28:58;;;;;;;;;;;;;;;27.38;49.58;97101.72;4219244;28;5755;-72
2023/08/13 03:31:02;;;;;;;;;;;;;;;27.37;49.61;97108.25;4219210;28;6675;-72
2023/08/13 03:33:05;;;;;;;;;;;;;;;27.35;49.34;97102.31;4218571;28;5673;-72
2023/08/13 03:35:10;;;;;;;;;;;;;;;27.35;49.62;97099.59;4218949;28;5739;-71
2023/08/13 03:37:13;;;;;;;;;;;;;;;27.35;49.52;97105.03;4219100;28;5661;-72
2023/08/13 03:39:15;;;;;;;;;;;;;;;27.34;49.67;97098.78;4218788;28;5676;-72
2023/08/13 03:41:18;;;;;;;;;;;;;;;27.33;49.78;97099.88;4218865;28;7042;-72
2023/08/13 03:43:21;;;;;;;;;;;;;;;27.33;49.54;97104.50;4217788;28;5748;-72
2023/08/13 03:45:24;;;;;;;;;;;;;;;27.33;49.75;97104.50;4218912;28;6370;-72
2023/08/13 03:47:26;;;;;;;;;;;;;;;27.33;49.46;97102.59;4218557;28;5697;-72
2023/08/13 03:49:29;;;;;;;;;;;;;;;27.33;49.49;97107.22;4218964;28;5791;-72
2023/08/13 03:51:34;;;;;;;;;;;;;;;27.32;49.67;97101.00;4218400;28;5677;-72
2023/08/13 03:53:35;;;;;;;;;;;;;;;27.31;49.58;97104.00;4218921;28;5763;-71
2023/08/13 03:55:39;;;;;;;;;;;;;;;27.31;49.41;97106.72;4218752;28;5764;-72
2023/08/13 03:57:42;;;;;;;;;;;;;;;27.28;49.52;97095.31;4210304;28;5664;-72
2023/08/13 03:59:44;;;;;;;;;;;;;;;27.27;49.54;97103.75;4201758;28;5700;-72
2023/08/13 04:01:48;;;;;;;;;;;;;;;27.27;49.45;97103.75;4202640;28;5690;-72
2023/08/13 04:03:51;;;;;;;;;;;;;;;27.26;49.40;97100.25;4218555;28;5668;-71
2023/08/13 09:26:00;;;;;;;;;;;;;;;26.45;54.70;97106.63;4239182;27;10309;-63
2023/08/13 09:28:04;;;;;;;;;;;;;;;26.75;53.73;97112.84;4245354;27;5602;-66
2023/08/13 09:30:12;;;;;;;;;;;;;;;26.95;52.95;97105.22;4240483;27;5648;-69
2023/08/13 09:32:18;;;;;;;;;;;;;;;27.14;52.49;97108.00;4241443;27;5825;-68
2023/08/13 09:34:21;;;;;;;;;;;;;;;27.30;51.83;97102.38;4241671;27;5667;-69
2023/08/13 09:36:24;;;;;;;;;;;;;;;27.40;51.38;97107.66;4235456;27;5604;-70
2023/08/13 09:38:27;;;;;;;;;;;;;;;27.49;50.78;97100.47;4236432;27;5704;-71
2023/08/13 09:40:30;;;;;;;;;;;;;;;27.58;50.66;97103.31;4244443;27;5678;-72
2023/08/13 09:42:35;;;;;;;;;;;;;;;27.67;50.15;97101.59;4244105;27;5750;-71
2023/08/13 09:44:38;;;;;;;;;;;;;;;27.71;49.67;97097.19;4241309;27;6287;-69
2023/08/13 09:46:42;;;;;;;;;;;;;;;27.74;48.83;97097.38;4239882;27;5738;-67
2023/08/13 09:48:45;;;;;;;;;;;;;;;27.77;48.84;97091.38;4245342;27;5697;-70
2023/08/13 09:50:51;;;;;;;;;;;;;;;27.84;49.16;97091.78;4236425;27;5692;-68
2023/08/13 09:52:57;;;;;;;;;;;;;;;27.92;49.01;97092.22;4236172;27;5770;-69
2023/08/13 09:55:08;;;;;;;;;;;;;;;27.96;48.85;97087.78;4238718;27;5711;-73
2023/08/13 09:57:15;;;;;;;;;;;;;;;27.98;48.47;97089.13;4240927;27;5768;-66
2023/08/13 09:59:19;;;;;;;;;;;;;;;27.99;48.26;97088.03;4242804;27;5786;-64
2023/08/13 10:01:23;;;;;;;;;;;;;;;27.99;48.26;97082.59;4233582;27;5914;-65
2023/08/13 10:03:26;;;;;;;;;;;;;;;28.02;48.29;97083.91;4239055;27;5756;-78
2023/08/13 10:05:30;;;;;;;;;;;;;;;28.03;47.74;97072.72;4236930;27;6172;-68
2023/08/13 10:07:33;;;;;;;;;;;;;;;28.04;47.95;97079.78;4238338;27;5815;-70
2023/08/13 10:09:38;;;;;;;;;;;;;;;28.05;47.87;97075.94;4237162;27;5768;-69
2023/08/13 10:11:40;;;;;;;;;;;;;;;28.07;47.91;97070.22;4238828;27;5776;-72
2023/08/13 10:13:46;;;;;;;;;;;;;;;28.08;47.95;97074.53;4238437;27;5824;-72
2023/08/13 10:15:51;;;;;;;;;;;;;;;28.09;47.58;97070.75;4240863;27;5814;-76
2023/08/13 10:17:54;;;;;;;;;;;;;;;28.07;47.46;97068.28;4242348;27;5693;-73
2023/08/13 10:19:59;;;;;;;;;;;;;;;28.09;47.61;97068.03;4234398;27;5784;-74
2023/08/13 10:22:02;;;;;;;;;;;;;;;28.12;47.62;97061.97;4242078;27;5804;-73
2023/08/13 10:24:11;;;;;;;;;;;;;;;28.12;47.45;97048.41;4237273;27;5625;-76
2023/08/13 10:26:14;;;;;;;;;;;;;;;28.15;47.53;97055.94;4230718;27;6600;-79
2023/08/13 10:28:21;;;;;;;;;;;;;;;28.18;47.59;97058.06;4234210;27;5713;-81
2023/08/13 10:30:24;;;;;;;;;;;;;;;28.21;47.52;97053.94;4230362;28;5752;-81
2023/08/13 10:32:28;;;;;;;;;;;;;;;28.21;46.96;97051.22;4229531;28;5616;-82
2023/08/13 10:34:42;;;;;;;;;;;;;;;28.23;46.96;97055.25;4226362;28;5642;-78
2023/08/13 10:36:55;;;;;;;;;;;;;;;28.24;46.49;97048.72;4224153;28;5902;-83
2023/08/13 10:39:30;;;;;;;;;;;;;;;28.25;46.02;97050.31;4229333;28;7664;-72
2023/08/13 10:41:34;;;;;;;;;;;;;;;28.27;46.18;97047.28;4226626;28;5602;-78
2023/08/13 10:43:37;;;;;;;;;;;;;;;28.28;45.96;97047.03;4226186;28;5696;-73
2023/08/13 10:45:40;;;;;;;;;;;;;;;28.29;45.82;97040.47;4225466;28;5724;-73
2023/08/13 10:47:48;;;;;;;;;;;;;;;28.31;45.70;97045.59;4227741;28;5685;-71
2023/08/13 10:49:51;;;;;;;;;;;;;;;28.33;45.55;97035.25;4228136;28;5593;-71
2023/08/13 10:51:54;;;;;;;;;;;;;;;28.33;45.40;97038.78;4228721;28;5629;-83
2023/08/13 10:53:59;;;;;;;;;;;;;;;28.33;45.33;97038.78;4228460;28;5711;-73
2023/08/13 10:56:02;;;;;;;;;;;;;;;28.34;45.24;97029.53;4223909;28;5593;-74
2023/08/13 10:58:04;;;;;;;;;;;;;;;28.35;45.21;97028.41;4222503;28;5603;-76
2023/08/13 11:00:13;;;;;;;;;;;;;;;28.37;45.25;97028.09;4225999;28;5802;-65
2023/08/13 11:02:21;;;;;;;;;;;;;;;28.37;45.12;97023.47;4222726;28;5885;-68
2023/08/13 11:04:27;;;;;;;;;;;;;;;28.38;45.07;97024.28;4225049;28;5693;-68
2023/08/13 11:06:31;;;;;;;;;;;;;;;28.40;44.97;97027.50;4230354;28;5695;-72
2023/08/13 11:08:38;;;;;;;;;;;;;;;28.39;44.95;97018.53;4222193;28;5624;-71
2023/08/13 11:10:51;;;;;;;;;;;;;;;28.39;44.66;97021.25;4226626;28;5661;-69
2023/08/13 11:12:54;;;;;;;;;;;;;;;28.40;44.75;97022.84;4226335;28;6318;-75
2023/08/13 11:14:59;;;;;;;;;;;;;;;28.43;44.72;97021.47;4231805;28;6461;-75
2023/08/13 11:17:02;;;;;;;;;;;;;;;28.44;44.69;97014.94;4229837;28;6303;-65
2023/08/13 11:19:06;;;;;;;;;;;;;;;28.46;44.70;97015.41;4232103;28;5765;-73
2023/08/13 11:21:10;;;;;;;;;;;;;;;28.49;44.81;97020.25;4228876;28;5695;-72
2023/08/13 11:23:13;;;;;;;;;;;;;;;28.50;44.81;97016.41;4228920;28;5811;-74
2023/08/13 11:25:16;;;;;;;;;;;;;;;28.50;44.87;97012.91;4228233;28;5907;-75
2023/08/13 11:27:19;;;;;;;;;;;;;;;28.51;44.87;97015.31;4225681;28;5662;-77
2023/08/13 11:29:22;;;;;;;;;;;;;;;28.53;44.93;97015.81;4224447;28;5711;-76
2023/08/13 11:31:25;;;;;;;;;;;;;;;28.55;44.81;97012.81;4230889;28;5590;-72
2023/08/13 11:33:28;;;;;;;;;;;;;;;28.56;45.02;97009.78;4225813;28;5686;-70
2023/08/13 11:35:30;;;;;;;;;;;;;;;28.59;44.80;97008.34;4225200;28;5608;-76
2023/08/13 11:37:35;;;;;;;;;;;;;;;28.61;44.58;97006.13;4223863;28;5666;-72
2023/08/13 11:39:38;;;;;;;;;;;;;;;28.63;44.59;96998.47;4224786;28;5605;-80
2023/08/13 11:41:43;;;;;;;;;;;;;;;28.67;44.26;97003.00;4227870;28;5753;-72
2023/08/13 11:43:53;;;;;;;;;;;;;;;28.69;44.19;96998.06;4219456;28;5728;-71
2023/08/13 11:45:56;;;;;;;;;;;;;;;28.71;44.06;96989.59;4233026;28;5714;-75
2023/08/13 11:48:11;;;;;;;;;;;;;;;28.73;44.27;96994.72;4229981;28;5613;-72
2023/08/13 11:50:19;;;;;;;;;;;;;;;28.76;43.80;96991.41;4227673;28;5601;-72
2023/08/13 11:52:22;;;;;;;;;;;;;;;28.77;43.79;96988.41;4228149;28;5751;-72
2023/08/13 11:54:26;;;;;;;;;;;;;;;28.80;43.80;96989.69;4225926;28;5652;-69
2023/08/13 11:56:28;;;;;;;;;;;;;;;28.81;43.67;96988.59;4228344;27;5778;-74
2023/08/13 11:58:31;;;;;;;;;;;;;;;28.82;43.57;96982.03;4226957;28;5823;-71
2023/08/13 12:00:35;;;;;;;;;;;;;;;28.83;43.52;96981.72;4224236;28;5892;-67
2023/08/13 12:02:38;;;;;;;;;;;;;;;28.85;43.79;96984.13;4229107;28;5585;-66
2023/08/13 12:04:47;;;;;;;;;;;;;;;28.87;43.62;96982.69;4221531;28;5599;-69
2023/08/13 12:06:52;;;;;;;;;;;;;;;28.87;43.81;96982.69;4226077;28;5729;-68
2023/08/13 12:08:56;;;;;;;;;;;;;;;28.87;43.60;96976.47;4223594;28;5756;-74
2023/08/13 12:11:00;;;;;;;;;;;;;;;28.89;43.69;96972.38;4219227;27;5816;-73
2023/08/13 12:13:04;;;;;;;;;;;;;;;28.90;43.55;96971.25;4221908;27;6119;-88
2023/08/13 12:15:08;;;;;;;;;;;;;;;28.93;43.52;96975.28;4226683;28;5626;-83
2023/08/13 12:17:09;;;;;;;;;;;;;;;28.95;43.51;96978.50;4227043;28;5708;-71
2023/08/13 12:19:12;;;;;;;;;;;;;;;28.96;43.31;96980.09;4227849;28;5742;-69
2023/08/13 12:21:15;;;;;;;;;;;;;;;28.97;43.47;96971.63;4228973;28;5800;-70
2023/08/13 12:23:19;;;;;;;;;;;;;;;28.98;43.29;96967.78;4223273;28;5958;-70
2023/08/13 12:25:22;;;;;;;;;;;;;;;28.99;43.18;96969.44;4215540;28;6028;-70
2023/08/13 12:27:26;;;;;;;;;;;;;;;28.99;43.20;96969.44;4224508;28;5716;-69
2023/08/13 12:29:29;;;;;;;;;;;;;;;28.99;43.14;96963.97;4228151;27;5645;-71
2023/08/13 12:31:31;;;;;;;;;;;;;;;28.99;43.28;96955.81;4226037;28;5115;-72
2023/08/13 12:33:34;;;;;;;;;;;;;;;29.01;42.99;96957.41;4230075;28;5693;-81
2023/08/13 12:35:37;;;;;;;;;;;;;;;29.04;42.94;96954.88;4226324;28;5764;-66
2023/08/13 12:37:41;;;;;;;;;;;;;;;29.04;42.93;96949.44;4220365;28;5767;-61
2023/08/13 12:39:44;;;;;;;;;;;;;;;29.10;42.99;96950.09;4228527;28;6629;-63
2023/08/13 12:41:47;;;;;;;;;;;;;;;29.12;42.75;96950.63;4228450;28;5883;-63
2023/08/13 12:43:51;;;;;;;;;;;;;;;29.13;42.77;96953.03;4222509;28;5816;-63
2023/08/13 12:45:52;;;;;;;;;;;;;;;29.15;42.65;96941.84;4220305;28;7801;-63
2023/08/13 12:47:55;;;;;;;;;;;;;;;29.18;42.44;96944.72;4230505;28;5598;-63
2023/08/13 12:49:58;;;;;;;;;;;;;;;29.23;42.32;96944.63;4224515;28;5728;-63
2023/08/13 12:52:16;;;;;;;;;;;;;;;29.24;42.32;96938.06;4228309;28;7722;-64
2023/08/13 12:54:19;;;;;;;;;;;;;;;29.24;41.89;96934.53;4232185;28;5602;-63
2023/08/13 12:56:22;;;;;;;;;;;;;;;29.25;42.13;96933.44;4230307;28;5582;-63
2023/08/13 12:58:25;;;;;;;;;;;;;;;29.26;41.97;96924.13;4227243;28;5677;-62
2023/08/13 13:00:29;;;;;;;;;;;;;;;29.26;41.97;96927.66;4227125;28;5613;-63
2023/08/13 13:02:32;;;;;;;;;;;;;;;29.28;41.98;96921.91;4223147;28;5811;-63
2023/08/13 13:04:35;;;;;;;;;;;;;;;29.29;41.88;96912.63;4223728;28;5860;-63
2023/08/13 13:06:39;;;;;;;;;;;;;;;29.32;41.70;96903.81;4227148;28;5776;-63
2023/08/13 13:08:42;;;;;;;;;;;;;;;29.34;41.74;96901.63;4219470;28;5784;-63
2023/08/13 13:10:45;;;;;;;;;;;;;;;29.35;41.82;96905.94;4225246;28;5718;-61
2023/08/13 13:12:48;;;;;;;;;;;;;;;29.37;41.79;96892.00;4231343;28;5590;-68
2023/08/13 13:14:51;;;;;;;;;;;;;;;29.40;41.87;96889.47;4222629;28;5594;-62
2023/08/13 13:16:55;;;;;;;;;;;;;;;29.43;41.78;96896.19;4221544;28;5602;-62
2023/08/13 13:18:58;;;;;;;;;;;;;;;29.45;41.92;96892.06;4222540;28;6381;-58
2023/08/13 13:21:01;;;;;;;;;;;;;;;29.48;41.75;96887.94;4219640;28;5736;-61
2023/08/13 13:23:05;;;;;;;;;;;;;;;29.48;41.66;96888.75;4221922;28;5685;-60
2023/08/13 13:25:10;;;;;;;;;;;;;;;29.49;41.84;96890.34;4228230;28;5950;-60
2023/08/13 13:27:12;;;;;;;;;;;;;;;29.52;41.76;96895.16;4228013;28;5621;-68
2023/08/13 13:29:15;;;;;;;;;;;;;;;29.53;42.00;96890.53;4230402;28;5805;-69
2023/08/13 13:31:18;;;;;;;;;;;;;;;29.56;41.76;96889.88;4228165;28;5708;-61
2023/08/13 13:33:22;;;;;;;;;;;;;;;29.59;42.31;96891.22;4229286;28;5879;-61
2023/08/13 13:35:25;;;;;;;;;;;;;;;29.63;42.91;96894.91;4230637;28;5825;-61
2023/08/13 13:37:29;;;;;;;;;;;;;;;29.65;42.76;96892.66;4225020;28;5775;-61
2023/08/13 13:39:31;;;;;;;;;;;;;;;29.66;42.97;96895.06;4218762;28;5732;-61
2023/08/13 13:41:34;;;;;;;;;;;;;;;29.66;42.88;96886.91;4220338;28;5677;-61
2023/08/13 13:43:37;;;;;;;;;;;;;;;29.67;43.07;96884.97;4220786;27;5780;-61
2023/08/13 13:45:40;;;;;;;;;;;;;;;29.67;43.03;96874.06;4222927;28;6897;-61
2023/08/13 13:47:42;;;;;;;;;;;;;;;29.68;43.01;96881.16;4219201;28;5709;-61
2023/08/13 13:49:46;;;;;;;;;;;;;;;29.70;42.79;96871.53;4221025;28;5832;-61
2023/08/13 13:51:49;;;;;;;;;;;;;;;29.73;42.65;96872.84;4223212;28;5672;-64
2023/08/13 13:53:52;;;;;;;;;;;;;;;29.74;42.58;96863.53;4222399;28;5780;-65
2023/08/13 13:55:55;;;;;;;;;;;;;;;29.74;42.62;96869.00;4217500;28;5601;-66
2023/08/13 13:57:58;;;;;;;;;;;;;;;29.77;43.35;96865.63;4219561;28;8553;-65
2023/08/13 14:00:00;;;;;;;;;;;;;;;29.77;43.11;96865.63;4219613;28;5774;-68
2023/08/13 14:02:04;;;;;;;;;;;;;;;29.77;43.59;96860.19;4224377;28;5739;-62
2023/08/13 14:04:06;;;;;;;;;;;;;;;29.77;43.71;96843.81;4224034;28;5748;-61
2023/08/13 14:06:11;;;;;;;;;;;;;;;29.77;43.31;96852.00;4222153;28;5698;-63
2023/08/13 14:08:14;;;;;;;;;;;;;;;29.75;43.26;96844.16;4224512;28;5715;-64
2023/08/13 14:10:16;;;;;;;;;;;;;;;29.74;43.07;96848.00;4220514;28;5785;-65
2023/08/13 14:12:19;;;;;;;;;;;;;;;29.75;43.41;96835.16;4223624;27;5744;-75
2023/08/13 14:14:22;;;;;;;;;;;;;;;29.76;42.85;96839.50;4223689;28;5716;-67
2023/08/13 14:16:25;;;;;;;;;;;;;;;29.76;42.70;96834.84;4220508;28;5612;-66
2023/08/13 14:18:28;;;;;;;;;;;;;;;29.76;42.37;96825.88;4222256;28;5729;-64
2023/08/13 14:20:32;;;;;;;;;;;;;;;29.77;42.75;96825.56;4219555;28;5598;-65
2023/08/13 14:22:36;;;;;;;;;;;;;;;29.80;41.86;96818.69;4225220;28;5697;-66
2023/08/13 14:24:39;;;;;;;;;;;;;;;29.83;41.83;96823.50;4221513;28;5672;-69
2023/08/13 14:26:41;;;;;;;;;;;;;;;29.83;41.76;96810.69;4225935;28;5688;-71
2023/08/13 14:28:44;;;;;;;;;;;;;;;29.81;41.76;96812.94;4222169;28;5597;-66
2023/08/13 14:30:47;;;;;;;;;;;;;;;29.81;41.52;96809.41;4220823;28;5796;-69
2023/08/13 14:32:50;;;;;;;;;;;;;;;29.82;41.42;96816.44;4218327;28;5846;-67
2023/08/13 14:34:53;;;;;;;;;;;;;;;29.82;41.43;96813.72;4222647;28;5701;-67
2023/08/13 14:36:56;;;;;;;;;;;;;;;29.80;41.08;96794.16;4224965;28;5598;-67
2023/08/13 14:39:02;;;;;;;;;;;;;;;29.83;40.97;96805.22;4219900;28;5156;-66
2023/08/13 14:41:06;;;;;;;;;;;;;;;29.85;40.79;96804.91;4221139;28;5581;-65
2023/08/13 14:43:09;;;;;;;;;;;;;;;29.88;41.25;96804.28;4219846;27;5657;-69
2023/08/13 14:45:11;;;;;;;;;;;;;;;29.92;40.99;96802.53;4218236;28;6651;-68
2023/08/13 14:47:14;;;;;;;;;;;;;;;29.96;40.91;96806.22;4225088;28;5711;-65
2023/08/13 14:49:17;;;;;;;;;;;;;;;30.00;40.91;96806.38;4219456;28;5673;-66
2023/08/13 14:51:20;;;;;;;;;;;;;;;29.98;40.82;96808.63;4218828;28;5786;-66
2023/08/13 14:53:23;;;;;;;;;;;;;;;29.96;40.81;96806.22;4220352;28;6771;-65
2023/08/13 14:55:27;;;;;;;;;;;;;;;29.98;40.46;96808.63;4223265;28;6485;-72
2023/08/13 14:57:30;;;;;;;;;;;;;;;29.98;40.73;96795.00;4219997;28;5796;-75
2023/08/13 14:59:33;;;;;;;;;;;;;;;29.99;40.61;96802.84;4221148;28;5828;-76
2023/08/13 15:01:36;;;;;;;;;;;;;;;30.01;40.48;96797.88;4219331;28;5975;-68
2023/08/13 15:03:38;;;;;;;;;;;;;;;30.00;40.42;96796.28;4219113;28;5881;-71
2023/08/13 15:05:41;;;;;;;;;;;;;;;29.95;40.50;96793.72;4217539;28;5737;-70
2023/08/13 15:07:44;;;;;;;;;;;;;;;29.93;40.64;96790.50;4218068;28;5092;-67
2023/08/13 15:09:46;;;;;;;;;;;;;;;29.92;40.56;96788.91;4222918;28;5677;-61
2023/08/13 15:11:51;;;;;;;;;;;;;;;29.90;40.87;96791.16;4217021;28;5798;-73
2023/08/13 15:13:54;;;;;;;;;;;;;;;29.90;40.19;96796.59;4222332;28;5791;-72
2023/08/13 15:15:57;;;;;;;;;;;;;;;29.91;39.98;96787.31;4221351;28;5792;-72
2023/08/13 15:18:00;;;;;;;;;;;;;;;29.94;39.75;96785.84;4222996;28;5717;-71
2023/08/13 15:20:03;;;;;;;;;;;;;;;29.96;39.75;96784.41;4223098;28;5831;-71
2023/08/13 15:22:06;;;;;;;;;;;;;;;29.98;39.52;96786.81;4221178;28;5641;-73
2023/08/13 15:24:09;;;;;;;;;;;;;;;30.00;39.32;96787.28;4223339;28;5801;-72
2023/08/13 15:26:12;;;;;;;;;;;;;;;30.00;39.42;96782.66;4220789;28;5768;-73
2023/08/13 15:28:15;;;;;;;;;;;;;;;30.00;39.24;96779.91;4222664;28;5800;-73
2023/08/13 15:30:18;;;;;;;;;;;;;;;29.99;39.11;96772.88;4222298;28;5648;-73
2023/08/13 15:32:21;;;;;;;;;;;;;;;29.98;39.04;96776.72;4222731;28;5679;-72
2023/08/13 15:34:25;;;;;;;;;;;;;;;29.98;38.63;96787.63;4221066;28;6710;-72
2023/08/13 15:36:28;;;;;;;;;;;;;;;29.96;38.50;96789.88;4225359;27;5616;-73
2023/08/13 15:38:30;;;;;;;;;;;;;;;29.95;38.39;96782.81;4217379;28;5788;-73
2023/08/13 15:40:33;;;;;;;;;;;;;;;29.98;38.17;96782.16;4203111;28;5761;-73
2023/08/13 15:42:37;;;;;;;;;;;;;;;29.99;37.89;96774.78;4218846;28;5719;-73
2023/08/13 15:44:40;;;;;;;;;;;;;;;29.99;37.88;96772.88;4216945;28;5726;-71
2023/08/13 15:46:43;;;;;;;;;;;;;;;30.00;37.89;96762.75;4215701;28;5716;-68
2023/08/13 15:48:46;;;;;;;;;;;;;;;29.99;37.64;96764.69;4220601;27;5896;-68
2023/08/13 15:50:48;;;;;;;;;;;;;;;29.98;37.64;96760.38;4222462;28;5851;-68
2023/08/13 15:52:52;;;;;;;;;;;;;;;29.98;37.43;96765.00;4220301;28;5713;-67
2023/08/13 15:54:55;;;;;;;;;;;;;;;29.97;37.55;96764.22;4218454;28;5731;-66
2023/08/13 15:56:59;;;;;;;;;;;;;;;29.98;37.69;96765.81;4218287;28;5748;-65
2023/08/13 15:59:02;;;;;;;;;;;;;;;29.97;37.34;96761.50;4221144;28;5772;-66
2023/08/13 16:01:07;;;;;;;;;;;;;;;29.98;37.31;96759.56;4220653;27;5728;-66
2023/08/13 16:03:10;;;;;;;;;;;;;;;29.98;37.37;96757.63;4219832;28;5721;-66
2023/08/13 16:05:14;;;;;;;;;;;;;;;29.99;36.87;96759.25;4223010;28;5804;-65
2023/08/13 16:07:17;;;;;;;;;;;;;;;30.01;36.82;96748.81;4227059;28;5609;-66
2023/08/13 16:09:20;;;;;;;;;;;;;;;30.05;36.73;96754.44;4232241;28;5689;-66
2023/08/13 16:11:23;;;;;;;;;;;;;;;30.06;36.97;96756.09;4232122;28;5735;-66
2023/08/13 16:13:27;;;;;;;;;;;;;;;30.06;36.86;96759.63;4231769;28;5692;-66
2023/08/13 16:15:29;;;;;;;;;;;;;;;30.05;36.97;96755.25;4226998;28;5641;-66